TimeCST,TemperatureF,Dew PointF,Humidity,Sea Level PressureIn,VisibilityMPH,Wind Direction,Wind SpeedMPH,Gust SpeedMPH,PrecipitationIn,Events,Conditions,WindDirDegrees,DateUTC
12:15 AM,59.2,35.1,40,30.13,10.0,South,4.6,-,N/A,,Clear,180,2013-03-09 06:15:00
12:35 AM,58.6,35.6,42,30.14,10.0,South,4.6,-,N/A,,Clear,190,2013-03-09 06:35:00
12:55 AM,58.3,36.0,43,30.14,10.0,South,3.5,-,N/A,,Clear,190,2013-03-09 06:55:00
1:15 AM,56.8,37.4,48,30.14,10.0,Calm,Calm,-,N/A,,Clear,0,2013-03-09 07:15:00
1:35 AM,57.4,36.7,46,30.14,10.0,SSW,3.5,-,N/A,,Clear,200,2013-03-09 07:35:00
1:55 AM,56.1,39.0,53,30.14,10.0,Calm,Calm,-,N/A,,Clear,0,2013-03-09 07:55:00
2:15 AM,55.6,39.6,55,30.13,10.0,South,3.5,-,N/A,,Clear,190,2013-03-09 08:15:00
2:35 AM,54.3,39.9,58,30.13,10.0,Calm,Calm,-,N/A,,Clear,0,2013-03-09 08:35:00
2:55 AM,53.6,41.4,63,30.12,10.0,Calm,Calm,-,N/A,,Clear,0,2013-03-09 08:55:00
3:15 AM,52.5,42.3,68,30.13,10.0,Calm,Calm,-,N/A,,Clear,0,2013-03-09 09:15:00
3:35 AM,53.1,42.3,67,30.13,10.0,Calm,Calm,-,N/A,,Clear,0,2013-03-09 09:35:00
3:55 AM,52.3,43.2,71,30.13,10.0,Calm,Calm,-,N/A,,Clear,0,2013-03-09 09:55:00
4:15 AM,52.3,43.0,70,30.12,10.0,Calm,Calm,-,N/A,,Clear,0,2013-03-09 10:15:00
4:35 AM,52.0,44.8,76,30.12,10.0,Calm,Calm,-,N/A,,Clear,0,2013-03-09 10:35:00
4:55 AM,52.3,43.2,71,30.12,10.0,Calm,Calm,-,N/A,,Clear,0,2013-03-09 10:55:00
5:15 AM,51.8,43.9,74,30.12,10.0,Calm,Calm,-,N/A,,Clear,0,2013-03-09 11:15:00
5:35 AM,52.7,42.8,69,30.11,10.0,SE,4.6,-,N/A,,Clear,130,2013-03-09 11:35:00
6:15 AM,53.8,42.1,65,30.11,10.0,SE,4.6,-,N/A,,Clear,140,2013-03-09 12:15:00
6:35 AM,53.6,42.8,67,30.12,10.0,SE,3.5,-,N/A,,Scattered Clouds,140,2013-03-09 12:35:00
6:55 AM,53.2,42.8,68,30.13,10.0,SE,3.5,-,N/A,,Clear,130,2013-03-09 12:55:00
7:15 AM,53.4,42.8,67,30.13,10.0,ESE,4.6,-,N/A,,Clear,120,2013-03-09 13:15:00
7:35 AM,53.6,43.0,67,30.14,10.0,SE,5.8,-,N/A,,Clear,130,2013-03-09 13:35:00
7:55 AM,53.6,43.7,69,30.14,10.0,SE,5.8,-,N/A,,Clear,130,2013-03-09 13:55:00
8:15 AM,53.6,44.2,71,30.14,10.0,SE,5.8,-,N/A,,Scattered Clouds,140,2013-03-09 14:15:00
8:35 AM,54.5,45.1,71,30.14,10.0,SE,4.6,-,N/A,,Scattered Clouds,130,2013-03-09 14:35:00
8:55 AM,55.4,46.4,72,30.14,10.0,SE,6.9,-,N/A,,Scattered Clouds,140,2013-03-09 14:55:00
9:15 AM,55.9,47.5,73,30.13,10.0,SSE,4.6,-,N/A,Rain,Light Rain,150,2013-03-09 15:15:00
9:35 AM,56.3,48.2,74,30.13,10.0,SE,5.8,-,N/A,,Overcast,140,2013-03-09 15:35:00
9:55 AM,57.6,48.6,72,30.11,10.0,SE,10.4,-,N/A,,Mostly Cloudy,140,2013-03-09 15:55:00
10:15 AM,59.2,49.3,70,30.11,10.0,SSE,9.2,-,N/A,,Scattered Clouds,150,2013-03-09 16:15:00
10:55 AM,61.7,50.7,67,30.10,10.0,SSE,8.1,-,N/A,,Scattered Clouds,150,2013-03-09 16:55:00
11:15 AM,62.1,51.6,69,30.09,10.0,SE,8.1,-,N/A,,Scattered Clouds,130,2013-03-09 17:15:00
11:35 AM,63.0,52.3,68,30.08,10.0,SSE,5.8,-,N/A,,Scattered Clouds,150,2013-03-09 17:35:00
11:55 AM,63.9,52.5,67,30.07,10.0,SE,9.2,-,N/A,,Clear,140,2013-03-09 17:55:00
12:15 PM,63.5,52.7,68,30.07,10.0,South,8.1,-,N/A,,Mostly Cloudy,170,2013-03-09 18:15:00
12:35 PM,64.0,52.7,67,30.05,10.0,SSE,6.9,-,N/A,,Overcast,160,2013-03-09 18:35:00
12:55 PM,66.7,52.9,61,30.03,10.0,SSE,6.9,-,N/A,,Mostly Cloudy,150,2013-03-09 18:55:00
1:15 PM,66.7,53.4,62,30.02,10.0,South,9.2,-,N/A,,Mostly Cloudy,190,2013-03-09 19:15:00
1:35 PM,66.6,54.1,64,30.01,10.0,South,6.9,-,N/A,,Overcast,180,2013-03-09 19:35:00
1:55 PM,67.3,54.9,64,30.01,10.0,SSW,9.2,-,N/A,,Overcast,200,2013-03-09 19:55:00
2:15 PM,68.0,54.7,62,30.00,10.0,South,12.7,18.4,N/A,,Overcast,170,2013-03-09 20:15:00
2:35 PM,67.8,54.9,63,29.99,10.0,South,11.5,-,N/A,,Overcast,180,2013-03-09 20:35:00
2:55 PM,70.3,55.0,58,29.97,10.0,SSE,9.2,18.4,N/A,,Mostly Cloudy,160,2013-03-09 20:55:00
3:15 PM,70.7,55.2,58,29.96,10.0,South,12.7,21.9,N/A,,Scattered Clouds,170,2013-03-09 21:15:00
3:35 PM,70.0,55.0,59,29.95,10.0,South,12.7,18.4,N/A,,Mostly Cloudy,180,2013-03-09 21:35:00
3:55 PM,70.3,54.7,58,29.94,10.0,SSW,17.3,21.9,N/A,,Mostly Cloudy,200,2013-03-09 21:55:00
4:15 PM,69.3,55.4,61,29.95,10.0,SSE,12.7,18.4,N/A,,Overcast,160,2013-03-09 22:15:00
4:35 PM,68.5,55.4,63,29.95,10.0,South,12.7,20.7,N/A,,Overcast,170,2013-03-09 22:35:00
4:55 PM,68.4,55.6,64,29.96,10.0,South,12.7,-,N/A,,Overcast,170,2013-03-09 22:55:00
5:15 PM,68.0,55.9,65,29.96,10.0,SSE,5.8,-,N/A,,Overcast,150,2013-03-09 23:15:00
5:35 PM,67.3,56.5,68,29.95,10.0,SSE,6.9,-,N/A,,Overcast,150,2013-03-09 23:35:00
5:55 PM,66.9,56.7,70,29.95,10.0,SSE,5.8,-,N/A,,Overcast,150,2013-03-09 23:55:00
6:15 PM,66.2,56.8,72,29.94,10.0,SSE,4.6,-,N/A,,Mostly Cloudy,160,2013-03-10 00:15:00
6:35 PM,66.2,57.2,73,29.93,10.0,SSE,5.8,-,N/A,,Mostly Cloudy,160,2013-03-10 00:35:00
6:55 PM,65.7,57.0,74,29.92,10.0,SSE,6.9,-,N/A,,Overcast,160,2013-03-10 00:55:00
7:15 PM,65.3,56.7,74,29.91,10.0,SSE,9.2,-,N/A,,Scattered Clouds,150,2013-03-10 01:15:00
7:55 PM,65.5,56.5,73,29.91,10.0,SSE,8.1,-,N/A,,Mostly Cloudy,160,2013-03-10 01:55:00
8:15 PM,65.7,56.7,73,29.92,10.0,SSE,8.1,-,N/A,,Overcast,160,2013-03-10 02:15:00
8:35 PM,65.3,56.8,74,29.93,10.0,South,8.1,-,N/A,,Mostly Cloudy,170,2013-03-10 02:35:00
8:55 PM,65.1,57.2,75,29.95,10.0,South,6.9,-,N/A,,Mostly Cloudy,180,2013-03-10 02:55:00
9:15 PM,64.9,57.2,76,29.95,10.0,SSE,5.8,-,N/A,,Overcast,150,2013-03-10 03:15:00
9:35 PM,65.1,57.2,75,29.95,10.0,SSE,5.8,-,N/A,,Overcast,150,2013-03-10 03:35:00
9:55 PM,64.9,57.2,76,29.96,10.0,SSE,8.1,17.3,N/A,,Overcast,150,2013-03-10 03:55:00
10:15 PM,64.6,57.2,77,29.96,10.0,SSE,9.2,-,N/A,,Overcast,160,2013-03-10 04:15:00
10:35 PM,64.4,57.2,77,29.96,10.0,SSE,9.2,-,N/A,,Overcast,160,2013-03-10 04:35:00
10:55 PM,63.9,57.2,79,29.95,10.0,SSE,8.1,-,N/A,,Mostly Cloudy,160,2013-03-10 04:55:00
11:15 PM,63.9,57.2,79,29.95,10.0,SSE,9.2,-,N/A,,Overcast,160,2013-03-10 05:15:00
11:35 PM,63.5,57.2,80,29.95,10.0,SSE,8.1,-,N/A,,Overcast,160,2013-03-10 05:35:00
11:55 PM,62.8,57.4,82,29.94,10.0,SSE,5.8,-,N/A,,Mostly Cloudy,150,2013-03-10 05:55:00